Aeroporto :
LOGIN :

Iscrizione | Disclaimer

   EN    FR    IT 

 










Sommario :    VFR   VFR Marginale   IFR   IFR Intensivo   IFR Molto Intensivo
Visibilità : 
Base nubi : 
>= 8 km
>= 3000ft
5 / 8 km
1000 / 3000 ft
1500m / 5 km
500 / 1000 ft
800 / 1500m
200 / 500 ft
< 800m
< 200 ft
Simboli :   Temporali  Nebbia  Neve Forte  Precipitazioni Forti  Vento > 20 kt
SIGMETs :   Varie  Temporali  Ghiacco  Turbolenza  Onda orograficha  Ceneri Vulcaniche






- Altitudine del aeroporto : 16 ft
- Codice IATA : EAS


LESO - San Sebastian Fuenterrabia

ULTIMO METAR :
  • 151430Z 19009KT CAVOK 18/06 Q1008

METARs OBSOLETI :
  • 151400Z 18008KT 140V210 9999 FEW065 19/06 Q1008
  • 151330Z 20011KT 160V240 9999 FEW065 20/06 Q1008
  • 151300Z 22013KT 170V280 9999 FEW055 20/05 Q1008
  • 151230Z 21012KT 190V250 9999 FEW055 20/05 Q1008
  • 151200Z 21014KT 170V240 9999 FEW055 20/06 Q1008

TAF TAF LESO
Valido dal 15 a 12 ore il 16 a 12 ore UTC


151100Z 1512/1612 18009KT CAVOK TX18/1514Z TN12/1522Z
PROB30
TEMPO 1512/1514 21015G25KT
TEMPO 1523/1612 16015G25KT
PROB40
TEMPO 1600/1610 16020G30KT
PROB30
TEMPO 1602/1608 16025G35KT



MetMap, La meteo Aeronautica in un colpo d'occhio ! - Copyright ORBIFLY Dicembre 2007 - Disclaimer

ORBIFLY MET'MAP TEAM :

Programmazione e sviluppo : Alexandra Zaïnal
Concezione : Baudouin d'Aumeries
Aiuto per la programmazione : Marc-Olivier Méhu
Supporto tecnico e logistico : Manuel Goepfert
Aiuto per la traduzione : Arnaldo La Scala

Contatto : metmap@orbifly.com




FONTI E CREDITI :

   NOAA